createdAt,value
2022-12-04T00:01:29.215Z,102280.38
2022-12-04T00:03:59.564Z,102270.72
2022-12-04T00:06:28.110Z,102278.59
2022-12-04T00:08:56.467Z,102281.19
2022-12-04T00:11:27.029Z,102278.59
2022-12-04T00:13:55.265Z,102261.06
2022-12-04T00:16:27.344Z,102266.31
2022-12-04T00:18:55.697Z,102275.06
2022-12-04T00:21:25.492Z,102273.34
2022-12-04T00:23:54.836Z,102277.75
2022-12-04T00:26:24.507Z,102278.63
2022-12-04T00:28:52.869Z,102276.00
2022-12-04T00:31:22.855Z,102272.50
2022-12-04T00:33:52.287Z,102271.63
2022-12-04T00:36:22.051Z,102259.31
2022-12-04T00:38:50.396Z,102261.94
2022-12-04T00:41:20.867Z,102266.34
2022-12-04T00:43:48.924Z,102269.81
2022-12-04T00:46:17.815Z,102271.53
2022-12-04T00:48:46.006Z,102275.06
2022-12-04T00:51:16.931Z,102265.44
2022-12-04T00:53:45.306Z,102268.03
2022-12-04T00:56:15.698Z,102261.91
2022-12-04T00:58:45.401Z,102260.22
2022-12-04T01:01:15.794Z,102258.41
2022-12-04T01:03:44.009Z,102265.38
2022-12-04T01:06:22.308Z,102257.44
2022-12-04T01:08:50.591Z,102262.63
2022-12-04T01:11:19.453Z,102255.66
2022-12-04T01:13:47.754Z,102256.50
2022-12-04T01:16:20.143Z,102255.59
2022-12-04T01:18:48.601Z,102255.66
2022-12-04T01:21:16.801Z,102253.91
2022-12-04T01:23:46.565Z,102262.69
2022-12-04T01:26:14.873Z,102258.34
2022-12-04T01:28:42.747Z,102261.03
2022-12-04T01:31:13.310Z,102264.50
2022-12-04T01:33:42.102Z,102254.84
2022-12-04T01:36:13.478Z,102253.97
2022-12-04T01:38:42.489Z,102254.84
2022-12-04T01:41:13.635Z,102260.13
2022-12-04T01:43:41.567Z,102256.63
2022-12-04T01:46:10.039Z,102255.75
2022-12-04T01:48:43.118Z,102253.13
2022-12-04T01:51:17.893Z,102246.94
2022-12-04T01:53:50.794Z,102255.78
2022-12-04T01:56:22.747Z,102247.03
2022-12-04T01:58:55.944Z,102245.22
2022-12-04T02:01:24.413Z,102252.25
2022-12-04T02:03:52.524Z,102252.22
2022-12-04T02:06:20.581Z,102246.13
2022-12-04T02:08:48.526Z,102242.59
2022-12-04T02:11:28.226Z,102239.09
2022-12-04T02:14:09.050Z,102246.94
2022-12-04T02:16:46.304Z,102248.75
2022-12-04T02:19:32.941Z,102235.56
2022-12-04T02:22:04.609Z,102226.69
2022-12-04T02:24:50.154Z,102231.09
2022-12-04T02:27:49.887Z,102229.34
2022-12-04T02:30:17.874Z,102221.47
2022-12-04T02:32:51.702Z,102221.50
2022-12-04T02:35:28.138Z,102222.38
2022-12-04T02:38:01.131Z,102221.44
2022-12-04T02:40:33.081Z,102224.94
2022-12-04T02:43:09.780Z,102228.44
2022-12-04T02:45:42.201Z,102217.91
2022-12-04T02:48:10.245Z,102220.53
2022-12-04T02:50:41.855Z,102216.25
2022-12-04T02:53:13.873Z,102219.75
2022-12-04T02:55:47.009Z,102205.72
2022-12-04T02:58:21.413Z,102218.00
2022-12-04T03:00:51.762Z,102223.31
2022-12-04T03:03:23.013Z,102221.56
2022-12-04T03:05:58.107Z,102226.81
2022-12-04T03:08:34.164Z,102219.72
2022-12-04T03:11:02.963Z,102218.03
2022-12-04T03:13:37.288Z,102233.84
2022-12-04T03:16:11.567Z,102222.38
2022-12-04T03:18:43.441Z,102231.06
2022-12-04T03:21:15.634Z,102226.72
2022-12-04T03:23:49.987Z,102234.59
2022-12-04T03:26:27.410Z,102222.31
2022-12-04T03:29:00.891Z,102225.84
2022-12-04T03:31:36.410Z,102225.00
2022-12-04T03:34:07.112Z,102218.81
2022-12-04T03:36:38.869Z,102227.56
2022-12-04T03:39:12.897Z,102223.19
2022-12-04T03:41:56.632Z,102218.72
2022-12-04T03:44:30.956Z,102220.53
2022-12-04T03:47:02.867Z,102210.97
2022-12-04T03:49:39.619Z,102222.41
2022-12-04T03:52:14.555Z,102222.34
2022-12-04T03:54:47.341Z,102218.72
2022-12-04T03:57:19.244Z,102214.31
2022-12-04T03:59:55.936Z,102219.59
2022-12-04T04:02:29.033Z,102208.19
2022-12-04T04:04:59.988Z,102213.41
2022-12-04T04:07:35.867Z,102217.78
2022-12-04T04:10:08.760Z,102211.72
2022-12-04T04:12:42.434Z,102213.47
2022-12-04T04:15:32.755Z,102207.28
2022-12-04T04:18:20.240Z,102206.50
2022-12-04T04:21:11.295Z,102212.56
2022-12-04T04:24:01.748Z,102210.78
2022-12-04T04:26:35.347Z,102208.13
2022-12-04T04:29:03.622Z,102208.09
2022-12-04T04:31:39.241Z,102211.56
2022-12-04T04:34:17.520Z,102208.13
2022-12-04T04:36:54.826Z,102203.75
2022-12-04T04:39:32.119Z,102196.75
2022-12-04T04:42:07.643Z,102208.94
2022-12-04T04:44:45.173Z,102205.50
2022-12-04T04:47:22.178Z,102206.38
2022-12-04T04:49:53.688Z,102209.00
2022-12-04T04:52:23.687Z,102216.06
2022-12-04T04:54:51.511Z,102213.25
2022-12-04T04:57:28.368Z,102209.81
2022-12-04T04:59:56.853Z,102208.19
2022-12-04T05:02:27.983Z,102207.22
2022-12-04T05:04:56.550Z,102209.00
2022-12-04T05:07:27.646Z,102216.78
2022-12-04T05:09:55.807Z,102218.53
2022-12-04T05:12:24.149Z,102217.66
2022-12-04T05:14:52.007Z,102223.78
2022-12-04T05:17:19.968Z,102224.75
2022-12-04T05:19:54.160Z,102229.03
2022-12-04T05:22:24.355Z,102232.59
2022-12-04T05:24:52.378Z,102236.16
2022-12-04T05:27:20.629Z,102230.91
2022-12-04T05:29:48.735Z,102222.13
2022-12-04T05:32:16.914Z,102221.28
2022-12-04T05:34:45.287Z,102219.59
2022-12-04T05:37:14.551Z,102222.16
2022-12-04T05:39:42.522Z,102220.38
2022-12-04T05:42:10.537Z,102217.75
2022-12-04T05:44:38.562Z,102219.38
2022-12-04T05:47:06.987Z,102219.41
2022-12-04T05:49:35.889Z,102221.22
2022-12-04T05:52:05.281Z,102227.38
2022-12-04T05:54:34.686Z,102229.91
2022-12-04T05:57:02.763Z,102220.25
2022-12-04T05:59:30.621Z,102222.88
2022-12-04T06:01:58.521Z,102219.47
2022-12-04T06:04:26.529Z,102221.19
2022-12-04T06:06:55.676Z,102219.44
2022-12-04T06:09:23.720Z,102217.69
2022-12-04T06:11:53.143Z,102216.84
2022-12-04T06:14:21.090Z,102209.78
2022-12-04T06:16:49.033Z,102214.22
2022-12-04T06:19:20.142Z,102221.25
2022-12-04T06:21:49.792Z,102226.44
2022-12-04T06:24:20.368Z,102232.59
2022-12-04T06:27:18.691Z,102231.66
2022-12-04T06:29:38.329Z,102237.84
2022-12-04T06:32:06.509Z,102230.78
2022-12-04T06:34:35.624Z,102233.38
2022-12-04T06:37:03.868Z,102231.66
2022-12-04T06:39:32.964Z,102232.59
2022-12-04T06:42:01.062Z,102229.06
2022-12-04T06:44:29.096Z,102227.34
2022-12-04T06:47:00.954Z,102233.41
2022-12-04T06:49:29.568Z,102229.16
2022-12-04T06:51:57.478Z,102225.66
2022-12-04T06:54:26.152Z,102236.09
2022-12-04T06:56:54.101Z,102231.72
2022-12-04T06:59:22.273Z,102230.88
2022-12-04T07:01:50.210Z,102241.34
2022-12-04T07:04:19.505Z,102240.44
2022-12-04T07:06:47.430Z,102240.44
2022-12-04T07:09:17.141Z,102243.88
2022-12-04T07:11:46.150Z,102242.22
2022-12-04T07:14:15.025Z,102247.41
2022-12-04T07:16:43.685Z,102239.41
2022-12-04T07:19:13.748Z,102241.25
2022-12-04T07:21:43.367Z,102250.00
2022-12-04T07:24:16.143Z,102246.53
2022-12-04T07:26:44.610Z,102239.38
2022-12-04T07:29:12.480Z,102239.31
2022-12-04T07:31:40.626Z,102235.91
2022-12-04T07:34:08.631Z,102242.09
2022-12-04T07:36:36.631Z,102232.53
2022-12-04T07:39:05.852Z,102227.25
2022-12-04T07:41:33.670Z,102235.03
2022-12-04T07:44:01.468Z,102235.00
2022-12-04T07:46:30.397Z,102238.44
2022-12-04T07:49:00.047Z,102249.09
2022-12-04T07:51:29.721Z,102247.38
2022-12-04T07:54:03.237Z,102242.00
2022-12-04T07:56:33.700Z,102257.69
2022-12-04T07:59:01.720Z,102246.13
2022-12-04T08:01:29.890Z,102248.13
2022-12-04T08:03:59.644Z,102260.34
2022-12-04T08:06:29.822Z,102257.66
2022-12-04T08:08:58.441Z,102259.47
2022-12-04T08:11:28.762Z,102254.16
2022-12-04T08:13:59.092Z,102248.97
2022-12-04T08:16:28.126Z,102242.88
2022-12-04T08:18:56.806Z,102255.06
2022-12-04T08:21:26.296Z,102244.47
2022-12-04T08:23:56.258Z,102251.56
2022-12-04T08:26:26.461Z,102244.47
2022-12-04T08:28:55.108Z,102246.25
2022-12-04T08:31:26.581Z,102245.41
2022-12-04T08:33:57.305Z,102252.31
2022-12-04T08:36:25.837Z,102247.91
2022-12-04T08:38:53.970Z,102255.72
2022-12-04T08:41:24.084Z,102255.72
2022-12-04T08:43:54.566Z,102251.19
2022-12-04T08:46:25.296Z,102252.88
2022-12-04T08:48:53.386Z,102250.34
2022-12-04T08:51:24.222Z,102253.00
2022-12-04T08:53:54.775Z,102250.53
2022-12-04T08:56:23.594Z,102249.50
2022-12-04T08:58:51.514Z,102252.91
2022-12-04T09:01:19.745Z,102253.91
2022-12-04T09:03:49.083Z,102246.78
2022-12-04T09:06:17.300Z,102247.66
2022-12-04T09:08:45.184Z,102236.97
2022-12-04T09:11:15.512Z,102245.59
2022-12-04T09:13:44.888Z,102246.72
2022-12-04T09:16:15.835Z,102249.41
2022-12-04T09:18:44.280Z,102238.72
2022-12-04T09:21:16.866Z,102242.06
2022-12-04T09:23:45.112Z,102240.28
2022-12-04T09:26:22.852Z,102245.59
2022-12-04T09:28:51.267Z,102248.34
2022-12-04T09:31:20.112Z,102245.63
2022-12-04T09:33:48.761Z,102244.59
2022-12-04T09:36:18.499Z,102242.66
2022-12-04T09:38:48.208Z,102243.59
2022-12-04T09:41:26.522Z,102241.75
2022-12-04T09:43:59.235Z,102236.53
2022-12-04T09:46:33.729Z,102234.69
2022-12-04T09:49:09.411Z,102239.16
2022-12-04T09:51:41.695Z,102239.00
2022-12-04T09:54:15.700Z,102235.56
2022-12-04T09:56:47.058Z,102226.72
2022-12-04T09:59:22.251Z,102220.41
2022-12-04T10:01:57.810Z,102204.50
2022-12-04T10:04:26.195Z,102218.44
2022-12-04T10:07:03.075Z,102215.72
2022-12-04T10:09:40.438Z,102212.97
2022-12-04T10:12:20.880Z,102209.41
2022-12-04T10:15:18.054Z,102221.84
2022-12-04T10:18:07.218Z,102212.31
2022-12-04T10:20:49.888Z,102216.47
2022-12-04T10:23:28.891Z,102212.31
2022-12-04T10:25:57.018Z,102215.91
2022-12-04T10:28:32.594Z,102207.81
2022-12-04T10:31:05.249Z,102216.41
2022-12-04T10:33:39.091Z,102213.81
2022-12-04T10:36:08.246Z,102212.97
2022-12-04T10:38:43.613Z,102210.44
2022-12-04T10:41:18.982Z,102211.34
2022-12-04T10:43:49.104Z,102207.03
2022-12-04T10:46:21.532Z,102204.25
2022-12-04T10:48:52.000Z,102200.91
2022-12-04T10:51:22.956Z,102197.34
2022-12-04T10:53:53.058Z,102195.63
2022-12-04T10:56:22.763Z,102203.53
2022-12-04T10:58:59.566Z,102196.31
2022-12-04T11:01:29.129Z,102196.34
2022-12-04T11:04:01.548Z,102191.94
2022-12-04T11:06:30.093Z,102178.84
2022-12-04T11:09:00.858Z,102192.75
2022-12-04T11:11:32.053Z,102195.47
2022-12-04T11:14:05.091Z,102186.84
2022-12-04T11:16:40.053Z,102188.44
2022-12-04T11:19:25.459Z,102190.34
2022-12-04T11:21:55.473Z,102185.88
2022-12-04T11:24:30.753Z,102185.72
2022-12-04T11:26:59.515Z,102179.63
2022-12-04T11:29:33.054Z,102179.63
2022-12-04T11:32:07.217Z,102179.75
2022-12-04T11:34:39.036Z,102180.63
2022-12-04T11:37:16.708Z,102178.84
2022-12-04T11:39:47.160Z,102182.09
2022-12-04T11:42:19.591Z,102178.69
2022-12-04T11:44:56.503Z,102180.47
2022-12-04T11:47:26.708Z,102169.06
2022-12-04T11:50:06.051Z,102171.66
2022-12-04T11:52:46.482Z,102166.28
2022-12-04T11:55:28.505Z,102151.88
2022-12-04T11:58:15.032Z,102150.28
2022-12-04T12:00:51.992Z,102159.06
2022-12-04T12:03:28.505Z,102158.41
2022-12-04T12:06:13.691Z,102157.28
2022-12-04T12:08:55.895Z,102154.66
2022-12-04T12:11:31.301Z,102144.75
2022-12-04T12:14:08.547Z,102143.72
2022-12-04T12:16:48.489Z,102152.56
2022-12-04T12:19:36.594Z,102150.06
2022-12-04T12:22:13.127Z,102151.03
2022-12-04T12:24:53.968Z,102152.00
2022-12-04T12:27:40.444Z,102158.13
2022-12-04T12:30:15.109Z,102150.22
2022-12-04T12:33:09.397Z,102150.28
2022-12-04T12:35:41.543Z,102145.13
2022-12-04T12:38:14.763Z,102150.34
2022-12-04T12:40:45.913Z,102155.38
2022-12-04T12:43:21.105Z,102145.56
2022-12-04T12:45:55.039Z,102145.66
2022-12-04T12:48:29.708Z,102141.53
2022-12-04T12:51:28.696Z,102139.47
2022-12-04T12:53:55.017Z,102139.50
2022-12-04T12:56:32.420Z,102132.41
2022-12-04T12:59:06.308Z,102125.97
2022-12-04T13:01:43.477Z,102128.38
2022-12-04T13:04:20.784Z,102118.06
2022-12-04T13:06:54.139Z,102124.22
2022-12-04T13:09:26.237Z,102108.31
2022-12-04T13:11:59.361Z,102105.53
2022-12-04T13:14:28.823Z,102098.75
2022-12-04T13:17:02.261Z,102088.78
2022-12-04T13:19:35.666Z,102100.25
2022-12-04T13:22:17.594Z,102088.78
2022-12-04T13:25:14.185Z,102085.19
2022-12-04T13:27:57.394Z,102087.22
2022-12-04T13:30:32.838Z,102078.47
2022-12-04T13:33:37.167Z,102073.06
2022-12-04T13:36:27.091Z,102076.38
2022-12-04T13:39:22.966Z,102071.91
2022-12-04T13:41:59.998Z,102079.97
2022-12-04T13:44:29.720Z,102068.50
2022-12-04T13:47:01.663Z,102064.09
2022-12-04T13:49:31.801Z,102063.38
2022-12-04T13:52:03.656Z,102072.16
2022-12-04T13:54:33.982Z,102069.34
2022-12-04T13:57:21.110Z,102075.22
2022-12-04T13:59:50.443Z,102081.34
2022-12-04T14:02:32.348Z,102082.28
2022-12-04T14:05:02.798Z,102079.72
2022-12-04T14:07:33.577Z,102078.72
2022-12-04T14:10:04.771Z,102075.25
2022-12-04T14:12:37.416Z,102091.97
2022-12-04T14:15:07.881Z,102083.16
2022-12-04T14:17:39.646Z,102088.63
2022-12-04T14:20:11.074Z,102095.59
2022-12-04T14:22:44.174Z,102092.66
2022-12-04T14:25:35.555Z,102091.94
2022-12-04T14:28:25.145Z,102088.19
2022-12-04T14:31:14.385Z,102083.19
2022-12-04T14:33:48.599Z,102080.53
2022-12-04T14:36:24.491Z,102087.59
2022-12-04T14:39:01.435Z,102082.31
2022-12-04T14:41:29.727Z,102084.19
2022-12-04T14:43:58.454Z,102077.94
2022-12-04T14:46:33.709Z,102082.03
2022-12-04T14:49:14.339Z,102092.75
2022-12-04T14:51:51.176Z,102089.38
2022-12-04T14:54:26.748Z,102085.84
2022-12-04T14:57:12.183Z,102085.13
2022-12-04T14:59:45.311Z,102081.63
2022-12-04T15:02:17.977Z,102076.09
2022-12-04T15:04:48.443Z,102068.78
2022-12-04T15:07:21.368Z,102070.63
2022-12-04T15:10:11.502Z,102071.53
2022-12-04T15:12:46.773Z,102065.44
2022-12-04T15:15:22.006Z,102068.81
2022-12-04T15:17:58.806Z,102067.06
2022-12-04T15:20:31.298Z,102065.41
2022-12-04T15:23:04.092Z,102065.69
2022-12-04T15:25:36.448Z,102071.03
2022-12-04T15:28:09.878Z,102067.50
2022-12-04T15:30:42.051Z,102064.84
2022-12-04T15:33:20.982Z,102059.28
2022-12-04T15:35:53.836Z,102058.47
2022-12-04T15:38:22.156Z,102053.19
2022-12-04T15:40:55.881Z,102063.75
2022-12-04T15:43:30.939Z,102063.75
2022-12-04T15:45:59.592Z,102056.81
2022-12-04T15:48:29.057Z,102066.19
2022-12-04T15:51:01.559Z,102048.66
2022-12-04T15:53:32.494Z,102052.22
2022-12-04T15:56:04.934Z,102053.97
2022-12-04T15:58:35.157Z,102051.25
2022-12-04T16:01:06.260Z,102060.25
2022-12-04T16:03:39.988Z,102040.75
2022-12-04T16:06:19.585Z,102046.69
2022-12-04T16:08:49.289Z,102042.16
2022-12-04T16:11:32.304Z,102051.78
2022-12-04T16:14:19.884Z,102053.63
2022-12-04T16:16:49.709Z,102054.44
2022-12-04T16:19:25.702Z,102051.47
2022-12-04T16:21:55.262Z,102046.94
2022-12-04T16:24:23.515Z,102040.03
2022-12-04T16:26:52.897Z,102040.13
2022-12-04T16:29:21.405Z,102040.06
2022-12-04T16:31:49.880Z,102033.94
2022-12-04T16:34:18.243Z,102042.28
2022-12-04T16:36:46.188Z,102044.06
2022-12-04T16:39:15.486Z,102038.59
2022-12-04T16:41:43.435Z,102040.38
2022-12-04T16:44:15.970Z,102038.59
2022-12-04T16:46:44.571Z,102037.75
2022-12-04T16:49:13.777Z,102040.38
2022-12-04T16:51:49.591Z,102034.91
2022-12-04T16:54:18.919Z,102043.63
2022-12-04T16:56:46.867Z,102042.72
2022-12-04T16:59:15.608Z,102035.38
2022-12-04T17:01:46.324Z,102050.22
2022-12-04T17:04:14.550Z,102050.47
2022-12-04T17:06:43.118Z,102047.81
2022-12-04T17:09:11.714Z,102057.25
2022-12-04T17:11:41.932Z,102060.84
2022-12-04T17:14:10.714Z,102057.38
2022-12-04T17:16:42.704Z,102061.78
2022-12-04T17:19:11.606Z,102061.56
2022-12-04T17:21:40.322Z,102056.28
2022-12-04T17:24:09.309Z,102062.34
2022-12-04T17:26:37.774Z,102064.13
2022-12-04T17:29:07.409Z,102060.53
2022-12-04T17:31:35.336Z,102065.72
2022-12-04T17:34:03.454Z,102059.47
2022-12-04T17:36:31.306Z,102082.06
2022-12-04T17:39:02.054Z,102078.09
2022-12-04T17:41:30.295Z,102085.28
2022-12-04T17:44:00.909Z,102078.09
2022-12-04T17:46:30.236Z,102081.50
2022-12-04T17:49:02.641Z,102079.31
2022-12-04T17:51:35.002Z,102084.59
2022-12-04T17:54:03.228Z,102079.06
2022-12-04T17:56:31.232Z,102082.63
2022-12-04T17:58:59.777Z,102082.66
2022-12-04T18:01:30.389Z,102081.75
2022-12-04T18:04:00.708Z,102086.19
2022-12-04T18:06:31.506Z,102080.06
2022-12-04T18:08:59.905Z,102089.91
2022-12-04T18:11:33.049Z,102089.06
2022-12-04T18:14:06.007Z,102089.16
2022-12-04T18:16:42.094Z,102083.63
2022-12-04T18:19:09.987Z,102080.03
2022-12-04T18:21:38.414Z,102087.81
2022-12-04T18:24:07.984Z,102083.38
2022-12-04T18:26:38.310Z,102083.56
2022-12-04T18:29:07.075Z,102081.56
2022-12-04T18:31:35.848Z,102084.13
2022-12-04T18:34:06.418Z,102087.59
2022-12-04T18:36:36.080Z,102085.78
2022-12-04T18:39:06.453Z,102090.88
2022-12-04T18:41:34.338Z,102090.88
2022-12-04T18:44:03.079Z,102085.56
2022-12-04T18:46:31.542Z,102098.06
2022-12-04T18:49:00.248Z,102095.53
2022-12-04T18:51:31.764Z,102089.22
2022-12-04T18:54:02.489Z,102083.81
2022-12-04T18:56:31.573Z,102084.91
2022-12-04T18:59:00.240Z,102092.38
2022-12-04T19:01:29.194Z,102081.66
2022-12-04T19:03:58.376Z,102084.22
2022-12-04T19:06:32.093Z,102087.00
2022-12-04T19:09:02.120Z,102094.25
2022-12-04T19:11:30.050Z,102097.69
2022-12-04T19:13:59.335Z,102095.03
2022-12-04T19:16:27.666Z,102093.19
2022-12-04T19:18:56.308Z,102101.25
2022-12-04T19:21:24.992Z,102091.78
2022-12-04T19:23:58.117Z,102095.16
2022-12-04T19:26:26.527Z,102095.75
2022-12-04T19:28:55.180Z,102109.06
2022-12-04T19:31:25.414Z,102101.16
2022-12-04T19:33:56.778Z,102092.34
2022-12-04T19:36:25.135Z,102095.78
2022-12-04T19:38:54.605Z,102097.72
2022-12-04T19:41:24.392Z,102094.84
2022-12-04T19:43:56.078Z,102099.41
2022-12-04T19:46:26.404Z,102101.03
2022-12-04T19:48:56.901Z,102089.59
2022-12-04T19:51:25.287Z,102095.03
2022-12-04T19:53:55.647Z,102090.63
2022-12-04T19:56:25.250Z,102089.78
2022-12-04T19:58:54.362Z,102083.00
2022-12-04T20:01:27.009Z,102089.97
2022-12-04T20:03:55.593Z,102088.13
2022-12-04T20:06:27.140Z,102089.91
2022-12-04T20:08:58.572Z,102080.94
2022-12-04T20:11:28.294Z,102079.97
2022-12-04T20:13:56.922Z,102087.84
2022-12-04T20:16:26.645Z,102079.06
2022-12-04T20:18:55.241Z,102079.22
2022-12-04T20:21:27.117Z,102079.97
2022-12-04T20:23:56.432Z,102070.97
2022-12-04T20:26:26.339Z,102082.69
2022-12-04T20:28:56.476Z,102069.13
2022-12-04T20:31:27.125Z,102067.38
2022-12-04T20:33:56.539Z,102071.31
2022-12-04T20:36:26.901Z,102064.94
2022-12-04T20:38:59.291Z,102061.28
2022-12-04T20:41:28.499Z,102053.63
2022-12-04T20:43:57.349Z,102055.41
2022-12-04T20:46:27.959Z,102057.03
2022-12-04T20:48:55.932Z,102057.66
2022-12-04T20:51:26.163Z,102055.97
2022-12-04T20:53:59.308Z,102046.31
2022-12-04T20:56:30.900Z,102050.22
2022-12-04T20:59:00.109Z,102053.50
2022-12-04T21:01:29.481Z,102061.41
2022-12-04T21:04:00.233Z,102051.81
2022-12-04T21:06:34.504Z,102052.53
2022-12-04T21:09:06.119Z,102055.09
2022-12-04T21:11:36.052Z,102054.97
2022-12-04T21:14:24.584Z,102045.81
2022-12-04T21:16:52.835Z,102050.38
2022-12-04T21:19:22.233Z,102053.16
2022-12-04T21:21:50.388Z,102051.25
2022-12-04T21:24:21.856Z,102054.16
2022-12-04T21:26:49.693Z,102047.16
2022-12-04T21:29:17.661Z,102047.19
2022-12-04T21:31:46.109Z,102046.22
2022-12-04T21:34:16.912Z,102041.84
2022-12-04T21:36:46.235Z,102045.25
2022-12-04T21:39:14.816Z,102047.06
2022-12-04T21:42:01.515Z,102045.66
2022-12-04T21:44:29.670Z,102040.31
2022-12-04T21:46:57.796Z,102030.41
2022-12-04T21:49:25.816Z,102034.22
2022-12-04T21:51:58.431Z,102030.41
2022-12-04T21:54:27.653Z,102030.41
2022-12-04T21:56:57.987Z,102026.91
2022-12-04T21:59:27.057Z,102020.66
2022-12-04T22:01:55.552Z,102019.56
2022-12-04T22:04:24.108Z,102020.44
2022-12-04T22:06:52.432Z,102015.16
2022-12-04T22:09:20.395Z,102009.06
2022-12-04T22:11:48.471Z,102012.38
2022-12-04T22:14:18.621Z,102008.78
2022-12-04T22:16:46.843Z,102020.28
2022-12-04T22:19:14.884Z,102025.16
2022-12-04T22:21:42.799Z,102018.06
2022-12-04T22:24:11.492Z,102011.88
2022-12-04T22:26:40.531Z,102017.78
2022-12-04T22:29:34.080Z,102015.09
2022-12-04T22:31:58.080Z,102016.97
2022-12-04T22:34:26.056Z,102024.16
2022-12-04T22:36:53.869Z,102027.72
2022-12-04T22:39:21.847Z,102025.03
2022-12-04T22:41:49.750Z,102028.47
2022-12-04T22:44:17.584Z,102031.91
2022-12-04T22:46:45.563Z,102024.41
2022-12-04T22:49:14.950Z,102023.53
2022-12-04T22:51:42.928Z,102029.53
2022-12-04T22:54:14.677Z,102026.88
2022-12-04T22:56:43.677Z,102019.81
2022-12-04T22:59:11.678Z,102023.63
2022-12-04T23:01:39.861Z,102025.16
2022-12-04T23:04:07.788Z,102016.47
2022-12-04T23:06:37.235Z,102017.69
2022-12-04T23:09:09.907Z,102013.59
2022-12-04T23:11:38.450Z,102014.09
2022-12-04T23:14:08.720Z,102014.09
2022-12-04T23:16:38.616Z,102006.06
2022-12-04T23:19:07.253Z,102009.59
2022-12-04T23:21:37.209Z,102001.50
2022-12-04T23:24:05.661Z,102006.50
2022-12-04T23:26:36.712Z,102004.97
2022-12-04T23:29:23.371Z,102001.59
2022-12-04T23:31:55.861Z,101997.72
2022-12-04T23:34:24.065Z,102000.59
2022-12-04T23:36:53.899Z,101999.66
2022-12-04T23:39:21.822Z,101996.75
2022-12-04T23:41:49.878Z,101997.06
2022-12-04T23:44:17.691Z,102004.06
2022-12-04T23:46:45.612Z,101990.66
2022-12-04T23:49:13.503Z,101993.44
2022-12-04T23:51:41.316Z,101996.84
2022-12-04T23:54:11.260Z,101991.63
2022-12-04T23:56:39.181Z,101988.28
2022-12-04T23:59:07.067Z,101990.88
